HomeShort term forecast

Short term forecast

Graphical weather forecast for the next 48 hours for Montreal:

Short term forecast

This weather forecast is automatically refreshed every 3 hours.

Hourly Experimental Forecast for the next 48 hours

Overall summary: Rain this evening and later this evening.

 Date & Hour   Temp   Feel   Baro   Hum   Speed & Bearing   Wind Gust   Precip.%   Precip.   Visibility   Cloud cover   Conditions 
 30/05/2020 - 21:00  14.2°C  14.2°C  1009.8 hPa  78%  21.8 km/h   40.7 km/h  100%  1.51 mm/h  16.1km  74%  Rain 
 30/05/2020 - 22:00  12.7°C  12.7°C  1011.4 hPa  76%  21.0 km/h   36.1 km/h  100%  0.75 mm/h  16.1km  86%  Light Rain 
 30/05/2020 - 23:00  11.7°C  11.7°C  1012.8 hPa  72%  20.3 km/h   33.0 km/h  8%  0.02 mm/h  16.1km  72%  Mostly Cloudy 
 31/05/2020 - 00:00  11.0°C  11.0°C  1013.8 hPa  68%  19.7 km/h   32.6 km/h  0%  --  16.1km  69%  Mostly Cloudy 
 31/05/2020 - 01:00  9.9°C  7.4°C  1014.7 hPa  67%  18.6 km/h   32.1 km/h  0%  --  16.1km  65%  Mostly Cloudy 
 31/05/2020 - 02:00  9.0°C  6.3°C  1015.2 hPa  66%  18.0 km/h   32.8 km/h  0%  --  16.1km  45%  Partly Cloudy 
 31/05/2020 - 03:00  7.8°C  5.0°C  1015.7 hPa  67%  16.7 km/h   30.9 km/h  0%  --  16.1km  24%  Clear 
 31/05/2020 - 04:00  6.8°C  3.9°C  1016.7 hPa  67%  15.2 km/h   29.6 km/h  0%  --  16.1km  15%  Clear 
 31/05/2020 - 05:00  6.0°C  3.0°C  1017.0 hPa  67%  15.4 km/h   30.3 km/h  1%  0.03 mm/h  16.1km  10%  Clear 
 31/05/2020 - 06:00  6.1°C  2.9°C  1017.9 hPa  61%  16.2 km/h   32.5 km/h  0%  --  16.1km  8%  Clear 
 31/05/2020 - 07:00  6.8°C  3.7°C  1018.3 hPa  53%  17.4 km/h   33.7 km/h  1%  0.01 mm/h  16.1km  6%  Clear 
 31/05/2020 - 08:00  7.9°C  4.9°C  1018.5 hPa  47%  18.4 km/h   33.5 km/h  0%  --  16.1km  5%  Clear 
 31/05/2020 - 09:00  9.0°C  6.1°C  1019.1 hPa  41%  19.4 km/h   34.1 km/h  1%  0.05 mm/h  16.1km  3%  Clear 
 31/05/2020 - 10:00  10.1°C  10.1°C  1019.2 hPa  36%  21.5 km/h   38.2 km/h  0%  --  16.1km  1%  Clear 
 31/05/2020 - 11:00  11.0°C  11.0°C  1019.1 hPa  33%  22.2 km/h   38.6 km/h  1%  0.01 mm/h  16.1km  0%  Clear 
 31/05/2020 - 12:00  11.7°C  11.7°C  1018.8 hPa  32%  22.5 km/h   38.0 km/h  0%  --  16.1km  16%  Clear 
 31/05/2020 - 13:00  12.2°C  12.2°C  1018.1 hPa  31%  22.4 km/h   36.6 km/h  0%  --  16.1km  39%  Partly Cloudy 
 31/05/2020 - 14:00  13.1°C  13.1°C  1017.7 hPa  31%  22.3 km/h   35.4 km/h  0%  --  16.1km  58%  Partly Cloudy 
 31/05/2020 - 15:00  13.8°C  13.8°C  1017.8 hPa  31%  22.7 km/h   34.9 km/h  0%  --  16.1km  67%  Mostly Cloudy 
 31/05/2020 - 16:00  14.4°C  14.4°C  1017.4 hPa  32%  23.2 km/h   34.5 km/h  1%  0.01 mm/h  16.1km  73%  Mostly Cloudy 
 31/05/2020 - 17:00  14.5°C  14.5°C  1017.4 hPa  33%  22.6 km/h   33.5 km/h  1%  0.01 mm/h  16.1km  73%  Mostly Cloudy 
 31/05/2020 - 18:00  14.3°C  14.3°C  1017.4 hPa  37%  20.4 km/h   31.2 km/h  1%  0.01 mm/h  16.1km  64%  Mostly Cloudy 
 31/05/2020 - 19:00  13.5°C  13.5°C  1017.7 hPa  41%  17.3 km/h   28.2 km/h  2%  0.04 mm/h  16.1km  52%  Partly Cloudy 
 31/05/2020 - 20:00  12.7°C  12.7°C  1017.9 hPa  45%  14.5 km/h   25.7 km/h  4%  0.06 mm/h  16.1km  43%  Partly Cloudy 
 31/05/2020 - 21:00  11.6°C  11.6°C  1018.0 hPa  50%  12.8 km/h   24.6 km/h  7%  0.09 mm/h  16.1km  46%  Partly Cloudy 
 31/05/2020 - 22:00  10.5°C  10.5°C  1018.2 hPa  58%  11.6 km/h   23.9 km/h  20%  0.29 mm/h  16.1km  55%  Partly Cloudy 
 31/05/2020 - 23:00  9.7°C  8.2°C  1018.4 hPa  63%  10.6 km/h   22.8 km/h  24%  0.47 mm/h  15.3km  63%  Mostly Cloudy 
 01/06/2020 - 00:00  9.2°C  7.7°C  1018.4 hPa  65%  9.9 km/h   21.2 km/h  18%  0.30 mm/h  16.1km  70%  Mostly Cloudy 
 01/06/2020 - 01:00  8.8°C  7.3°C  1018.4 hPa  67%  9.5 km/h   19.6 km/h  10%  0.10 mm/h  16.1km  80%  Mostly Cloudy 
 01/06/2020 - 02:00  8.3°C  6.7°C  1018.5 hPa  69%  9.3 km/h   18.3 km/h  6%  0.06 mm/h  16.1km  84%  Mostly Cloudy 
 01/06/2020 - 03:00  7.5°C  5.7°C  1018.7 hPa  72%  9.5 km/h   17.0 km/h  4%  0.04 mm/h  16.1km  68%  Mostly Cloudy 
 01/06/2020 - 04:00  6.5°C  4.5°C  1019.1 hPa  75%  10.0 km/h   15.8 km/h  3%  0.01 mm/h  16.1km  43%  Partly Cloudy 
 01/06/2020 - 05:00  6.1°C  3.9°C  1019.4 hPa  75%  10.3 km/h   15.0 km/h  0%  --  16.1km  23%  Clear 
 01/06/2020 - 06:00  6.8°C  4.7°C  1020.1 hPa  71%  10.6 km/h   15.2 km/h  0%  --  16.1km  21%  Clear 
 01/06/2020 - 07:00  8.1°C  6.2°C  1021.0 hPa  63%  11.0 km/h   16.4 km/h  0%  --  16.1km  18%  Clear 
 01/06/2020 - 08:00  9.7°C  8.0°C  1021.4 hPa  56%  11.7 km/h   17.8 km/h  0%  --  16.1km  17%  Clear 
 01/06/2020 - 09:00  11.1°C  11.1°C  1021.0 hPa  50%  13.0 km/h   18.6 km/h  0%  --  16.1km  21%  Clear 
 01/06/2020 - 10:00  12.4°C  12.4°C  1020.5 hPa  43%  14.4 km/h   19.0 km/h  0%  --  16.1km  26%  Clear 
 01/06/2020 - 11:00  13.6°C  13.6°C  1019.8 hPa  38%  15.6 km/h   19.6 km/h  1%  0.01 mm/h  16.1km  31%  Clear 
 01/06/2020 - 12:00  14.3°C  14.3°C  1019.2 hPa  36%  16.5 km/h   20.6 km/h  2%  0.01 mm/h  16.1km  40%  Partly Cloudy 
 01/06/2020 - 13:00  15.3°C  15.3°C  1018.6 hPa  35%  17.1 km/h   21.8 km/h  0%  --  16.1km  52%  Partly Cloudy 
 01/06/2020 - 14:00  16.1°C  16.1°C  1018.0 hPa  36%  17.4 km/h   22.8 km/h  2%  0.01 mm/h  16.1km  61%  Mostly Cloudy 
 01/06/2020 - 15:00  16.6°C  16.6°C  1017.6 hPa  36%  17.0 km/h   23.6 km/h  0%  --  16.1km  68%  Mostly Cloudy 
 01/06/2020 - 16:00  16.3°C  16.3°C  1016.7 hPa  39%  16.0 km/h   24.3 km/h  3%  0.01 mm/h  16.1km  76%  Mostly Cloudy 
 01/06/2020 - 17:00  16.0°C  16.0°C  1016.4 hPa  43%  14.9 km/h   24.4 km/h  3%  0.02 mm/h  16.1km  80%  Mostly Cloudy 
 01/06/2020 - 18:00  15.6°C  15.6°C  1016.3 hPa  46%  13.5 km/h   23.2 km/h  4%  0.03 mm/h  16.1km  69%  Mostly Cloudy 
 01/06/2020 - 19:00  15.5°C  15.5°C  1016.2 hPa  48%  11.8 km/h   21.5 km/h  5%  0.06 mm/h  16.1km  51%  Partly Cloudy 
 01/06/2020 - 20:00  14.9°C  14.9°C  1016.0 hPa  50%  10.6 km/h   20.9 km/h  5%  0.09 mm/h  16.1km  40%  Partly Cloudy 

 

Past weather and reports

Past weatherFind in this section the past weather conditions, weather archive, graphics, reports and statistics.

Current conditions

Current weather condition for MontrealAll you need to know about the current weather conditions for Montreal. Weather data is updated every 10 minutes.

Weather forecast

Current Montreal weatherSince 2004, celinium.com website has provided accurate weather forecast for Montreal's island.